sensor_id;sensor_type;location;lat;lon;timestamp;temperature;humidity
26691;DHT22;14307;51.718;8.938;2023-02-28T00:00:36;0.00;99.90
26691;DHT22;14307;51.718;8.938;2023-02-28T00:03:03;0.10;99.90
26691;DHT22;14307;51.718;8.938;2023-02-28T00:05:30;0.20;99.90
26691;DHT22;14307;51.718;8.938;2023-02-28T00:07:57;0.20;99.90
26691;DHT22;14307;51.718;8.938;2023-02-28T00:10:26;0.20;99.90
26691;DHT22;14307;51.718;8.938;2023-02-28T00:12:55;0.20;99.90
26691;DHT22;14307;51.718;8.938;2023-02-28T00:15:23;0.10;99.90
26691;DHT22;14307;51.718;8.938;2023-02-28T00:17:50;0.20;99.90
26691;DHT22;14307;51.718;8.938;2023-02-28T00:20:18;0.20;99.90
26691;DHT22;14307;51.718;8.938;2023-02-28T00:22:46;0.10;99.90
26691;DHT22;14307;51.718;8.938;2023-02-28T00:25:17;0.10;99.90
26691;DHT22;14307;51.718;8.938;2023-02-28T00:27:44;0.10;99.90
26691;DHT22;14307;51.718;8.938;2023-02-28T00:30:14;0.00;99.90
26691;DHT22;14307;51.718;8.938;2023-02-28T00:32:41;0.10;99.90
26691;DHT22;14307;51.718;8.938;2023-02-28T00:35:09;0.10;99.90
26691;DHT22;14307;51.718;8.938;2023-02-28T00:37:36;0.00;99.90
26691;DHT22;14307;51.718;8.938;2023-02-28T00:40:05;0.00;99.90
26691;DHT22;14307;51.718;8.938;2023-02-28T00:42:33;-0.10;99.90
26691;DHT22;14307;51.718;8.938;2023-02-28T00:45:00;-0.10;99.90
26691;DHT22;14307;51.718;8.938;2023-02-28T00:47:28;-0.10;99.90
26691;DHT22;14307;51.718;8.938;2023-02-28T00:49:54;0.00;99.90
26691;DHT22;14307;51.718;8.938;2023-02-28T00:52:21;0.00;99.90
26691;DHT22;14307;51.718;8.938;2023-02-28T00:54:48;-0.10;99.90
26691;DHT22;14307;51.718;8.938;2023-02-28T00:57:14;-0.20;99.90
26691;DHT22;14307;51.718;8.938;2023-02-28T00:59:41;-0.30;99.90
26691;DHT22;14307;51.718;8.938;2023-02-28T01:02:08;-0.20;99.90
26691;DHT22;14307;51.718;8.938;2023-02-28T01:04:36;-0.20;99.90
26691;DHT22;14307;51.718;8.938;2023-02-28T01:07:03;-0.20;99.90
26691;DHT22;14307;51.718;8.938;2023-02-28T01:09:30;-0.40;99.90
26691;DHT22;14307;51.718;8.938;2023-02-28T01:11:57;-0.50;99.90
26691;DHT22;14307;51.718;8.938;2023-02-28T01:14:24;-0.50;99.90
26691;DHT22;14307;51.718;8.938;2023-02-28T01:16:51;-0.50;99.90
26691;DHT22;14307;51.718;8.938;2023-02-28T01:19:18;-0.50;99.90
26691;DHT22;14307;51.718;8.938;2023-02-28T01:21:45;-0.60;99.90
26691;DHT22;14307;51.718;8.938;2023-02-28T01:24:12;-0.70;99.90
26691;DHT22;14307;51.718;8.938;2023-02-28T01:26:39;-0.70;99.90
26691;DHT22;14307;51.718;8.938;2023-02-28T01:29:06;-0.70;99.90
26691;DHT22;14307;51.718;8.938;2023-02-28T01:31:34;-0.70;99.90
26691;DHT22;14307;51.718;8.938;2023-02-28T01:34:01;-0.70;99.90
26691;DHT22;14307;51.718;8.938;2023-02-28T01:36:29;-0.80;99.90
26691;DHT22;14307;51.718;8.938;2023-02-28T01:38:56;-0.90;99.90
26691;DHT22;14307;51.718;8.938;2023-02-28T01:41:26;-0.90;99.90
26691;DHT22;14307;51.718;8.938;2023-02-28T01:46:22;-0.90;99.90
26691;DHT22;14307;51.718;8.938;2023-02-28T01:48:54;-0.90;99.90
26691;DHT22;14307;51.718;8.938;2023-02-28T01:51:49;-0.90;99.90
26691;DHT22;14307;51.718;8.938;2023-02-28T01:54:27;-0.90;99.90
26691;DHT22;14307;51.718;8.938;2023-02-28T01:57:06;-0.90;99.90
26691;DHT22;14307;51.718;8.938;2023-02-28T01:59:40;-0.90;99.90
26691;DHT22;14307;51.718;8.938;2023-02-28T02:02:17;-0.90;99.90
26691;DHT22;14307;51.718;8.938;2023-02-28T02:04:56;-0.90;99.90
26691;DHT22;14307;51.718;8.938;2023-02-28T02:07:25;-0.90;99.90
26691;DHT22;14307;51.718;8.938;2023-02-28T02:10:05;-0.90;99.90
26691;DHT22;14307;51.718;8.938;2023-02-28T02:18:33;-1.00;99.90
26691;DHT22;14307;51.718;8.938;2023-02-28T02:21:12;-0.90;99.90
26691;DHT22;14307;51.718;8.938;2023-02-28T02:30:02;-1.00;99.90
26691;DHT22;14307;51.718;8.938;2023-02-28T02:35:34;-1.10;99.90
26691;DHT22;14307;51.718;8.938;2023-02-28T02:38:49;-1.00;99.90
26691;DHT22;14307;51.718;8.938;2023-02-28T02:41:23;-1.00;99.90
26691;DHT22;14307;51.718;8.938;2023-02-28T02:46:51;-1.00;99.90
26691;DHT22;14307;51.718;8.938;2023-02-28T02:49:24;-1.10;99.90
26691;DHT22;14307;51.718;8.938;2023-02-28T02:51:55;-1.10;99.90
26691;DHT22;14307;51.718;8.938;2023-02-28T02:54:30;-1.20;99.90
26691;DHT22;14307;51.718;8.938;2023-02-28T02:57:00;-1.10;99.90
26691;DHT22;14307;51.718;8.938;2023-02-28T02:59:28;-1.10;99.90
26691;DHT22;14307;51.718;8.938;2023-02-28T03:01:59;-1.10;99.90
26691;DHT22;14307;51.718;8.938;2023-02-28T03:04:30;-1.00;99.90
26691;DHT22;14307;51.718;8.938;2023-02-28T03:06:58;-1.00;99.90
26691;DHT22;14307;51.718;8.938;2023-02-28T03:09:25;-1.00;99.90
26691;DHT22;14307;51.718;8.938;2023-02-28T03:11:54;-1.00;99.90
26691;DHT22;14307;51.718;8.938;2023-02-28T03:17:34;-1.20;99.90
26691;DHT22;14307;51.718;8.938;2023-02-28T03:23:13;-1.30;99.90
26691;DHT22;14307;51.718;8.938;2023-02-28T03:26:12;-1.30;99.90
26691;DHT22;14307;51.718;8.938;2023-02-28T03:28:56;-1.30;99.90
26691;DHT22;14307;51.718;8.938;2023-02-28T03:31:43;-1.40;99.90
26691;DHT22;14307;51.718;8.938;2023-02-28T03:34:19;-1.60;99.90
26691;DHT22;14307;51.718;8.938;2023-02-28T03:36:53;-1.70;99.90
26691;DHT22;14307;51.718;8.938;2023-02-28T03:42:15;-1.90;99.90
26691;DHT22;14307;51.718;8.938;2023-02-28T03:44:50;-2.00;99.90
26691;DHT22;14307;51.718;8.938;2023-02-28T03:47:29;-2.00;99.90
26691;DHT22;14307;51.718;8.938;2023-02-28T03:50:05;-2.00;99.90
26691;DHT22;14307;51.718;8.938;2023-02-28T03:52:35;-2.10;99.90
26691;DHT22;14307;51.718;8.938;2023-02-28T03:55:10;-2.10;99.90
26691;DHT22;14307;51.718;8.938;2023-02-28T03:57:55;-2.10;99.90
26691;DHT22;14307;51.718;8.938;2023-02-28T04:00:34;-2.10;99.90
26691;DHT22;14307;51.718;8.938;2023-02-28T04:03:03;-2.20;99.90
26691;DHT22;14307;51.718;8.938;2023-02-28T04:05:31;-2.40;99.90
26691;DHT22;14307;51.718;8.938;2023-02-28T04:08:06;-2.50;99.90
26691;DHT22;14307;51.718;8.938;2023-02-28T04:10:33;-2.40;99.90
26691;DHT22;14307;51.718;8.938;2023-02-28T04:12:59;-2.40;99.90
26691;DHT22;14307;51.718;8.938;2023-02-28T04:15:26;-2.50;99.90
26691;DHT22;14307;51.718;8.938;2023-02-28T04:17:53;-2.50;99.90
26691;DHT22;14307;51.718;8.938;2023-02-28T04:20:20;-2.70;99.90
26691;DHT22;14307;51.718;8.938;2023-02-28T04:22:47;-2.60;99.90
26691;DHT22;14307;51.718;8.938;2023-02-28T04:25:13;-2.70;99.90
26691;DHT22;14307;51.718;8.938;2023-02-28T04:27:40;-2.70;99.90
26691;DHT22;14307;51.718;8.938;2023-02-28T04:30:07;-2.60;99.90
26691;DHT22;14307;51.718;8.938;2023-02-28T04:32:34;-2.60;99.90
26691;DHT22;14307;51.718;8.938;2023-02-28T04:35:01;-2.50;99.90
26691;DHT22;14307;51.718;8.938;2023-02-28T04:37:29;-2.60;99.90
26691;DHT22;14307;51.718;8.938;2023-02-28T04:39:55;-2.70;99.90
26691;DHT22;14307;51.718;8.938;2023-02-28T04:42:23;-2.70;99.90
26691;DHT22;14307;51.718;8.938;2023-02-28T04:44:50;-2.60;99.90
26691;DHT22;14307;51.718;8.938;2023-02-28T04:47:16;-2.70;99.90
26691;DHT22;14307;51.718;8.938;2023-02-28T04:49:43;-2.60;99.90
26691;DHT22;14307;51.718;8.938;2023-02-28T04:52:10;-2.60;99.90
26691;DHT22;14307;51.718;8.938;2023-02-28T04:54:37;-2.60;99.90
26691;DHT22;14307;51.718;8.938;2023-02-28T04:57:05;-2.50;99.90
26691;DHT22;14307;51.718;8.938;2023-02-28T04:59:32;-2.40;99.90
26691;DHT22;14307;51.718;8.938;2023-02-28T05:01:59;-2.40;99.90
26691;DHT22;14307;51.718;8.938;2023-02-28T05:04:26;-2.30;99.90
26691;DHT22;14307;51.718;8.938;2023-02-28T05:06:52;-2.30;99.90
26691;DHT22;14307;51.718;8.938;2023-02-28T05:09:19;-2.30;99.90
26691;DHT22;14307;51.718;8.938;2023-02-28T05:11:45;-2.20;99.90
26691;DHT22;14307;51.718;8.938;2023-02-28T05:14:13;-2.10;99.90
26691;DHT22;14307;51.718;8.938;2023-02-28T05:16:40;-2.00;99.90
26691;DHT22;14307;51.718;8.938;2023-02-28T05:19:07;-2.00;99.90
26691;DHT22;14307;51.718;8.938;2023-02-28T05:21:38;-2.00;99.90
26691;DHT22;14307;51.718;8.938;2023-02-28T05:24:10;-1.90;99.90
26691;DHT22;14307;51.718;8.938;2023-02-28T05:26:42;-2.00;99.90
26691;DHT22;14307;51.718;8.938;2023-02-28T05:29:09;-1.90;99.90
26691;DHT22;14307;51.718;8.938;2023-02-28T05:31:37;-1.90;99.90
26691;DHT22;14307;51.718;8.938;2023-02-28T05:34:04;-2.00;99.90
26691;DHT22;14307;51.718;8.938;2023-02-28T05:36:31;-1.90;99.90
26691;DHT22;14307;51.718;8.938;2023-02-28T05:38:57;-1.90;99.90
26691;DHT22;14307;51.718;8.938;2023-02-28T05:41:24;-1.90;99.90
26691;DHT22;14307;51.718;8.938;2023-02-28T05:43:53;-2.00;99.90
26691;DHT22;14307;51.718;8.938;2023-02-28T05:46:19;-2.00;99.90
26691;DHT22;14307;51.718;8.938;2023-02-28T05:48:47;-2.10;99.90
26691;DHT22;14307;51.718;8.938;2023-02-28T05:51:14;-2.10;99.90
26691;DHT22;14307;51.718;8.938;2023-02-28T05:53:41;-2.20;99.90
26691;DHT22;14307;51.718;8.938;2023-02-28T05:56:08;-2.20;99.90
26691;DHT22;14307;51.718;8.938;2023-02-28T05:58:34;-2.20;99.90
26691;DHT22;14307;51.718;8.938;2023-02-28T06:01:20;-2.30;99.90
26691;DHT22;14307;51.718;8.938;2023-02-28T06:03:47;-2.10;99.90
26691;DHT22;14307;51.718;8.938;2023-02-28T06:06:14;-2.10;99.90
26691;DHT22;14307;51.718;8.938;2023-02-28T06:08:40;-2.10;99.90
26691;DHT22;14307;51.718;8.938;2023-02-28T06:11:09;-2.20;99.90
26691;DHT22;14307;51.718;8.938;2023-02-28T06:13:36;-2.20;99.90
26691;DHT22;14307;51.718;8.938;2023-02-28T06:16:03;-2.20;99.90
26691;DHT22;14307;51.718;8.938;2023-02-28T06:18:29;-2.20;99.90
26691;DHT22;14307;51.718;8.938;2023-02-28T06:20:56;-2.10;99.90
26691;DHT22;14307;51.718;8.938;2023-02-28T06:23:22;-2.10;99.90
26691;DHT22;14307;51.718;8.938;2023-02-28T06:25:49;-2.20;99.90
26691;DHT22;14307;51.718;8.938;2023-02-28T06:28:16;-2.30;99.90
26691;DHT22;14307;51.718;8.938;2023-02-28T06:30:42;-2.40;99.90
26691;DHT22;14307;51.718;8.938;2023-02-28T06:33:12;-2.50;99.90
26691;DHT22;14307;51.718;8.938;2023-02-28T06:35:38;-2.60;99.90
26691;DHT22;14307;51.718;8.938;2023-02-28T06:38:05;-2.70;99.90
26691;DHT22;14307;51.718;8.938;2023-02-28T06:40:32;-2.70;99.90
26691;DHT22;14307;51.718;8.938;2023-02-28T06:43:01;-2.80;99.90
26691;DHT22;14307;51.718;8.938;2023-02-28T06:45:28;-2.70;99.90
26691;DHT22;14307;51.718;8.938;2023-02-28T06:47:55;-2.70;99.90
26691;DHT22;14307;51.718;8.938;2023-02-28T06:50:21;-2.60;99.90
26691;DHT22;14307;51.718;8.938;2023-02-28T06:52:48;-2.50;99.90
26691;DHT22;14307;51.718;8.938;2023-02-28T06:55:20;-2.50;99.90
26691;DHT22;14307;51.718;8.938;2023-02-28T06:57:46;-2.50;99.90
26691;DHT22;14307;51.718;8.938;2023-02-28T07:00:14;-2.50;99.90
26691;DHT22;14307;51.718;8.938;2023-02-28T07:02:40;-2.50;99.90
26691;DHT22;14307;51.718;8.938;2023-02-28T07:05:07;-2.50;99.90
26691;DHT22;14307;51.718;8.938;2023-02-28T07:07:34;-2.60;99.90
26691;DHT22;14307;51.718;8.938;2023-02-28T07:10:03;-2.50;99.90
26691;DHT22;14307;51.718;8.938;2023-02-28T07:12:30;-2.50;99.90
26691;DHT22;14307;51.718;8.938;2023-02-28T07:14:57;-2.70;99.90
26691;DHT22;14307;51.718;8.938;2023-02-28T07:17:23;-2.60;99.90
26691;DHT22;14307;51.718;8.938;2023-02-28T07:19:50;-2.60;99.90
26691;DHT22;14307;51.718;8.938;2023-02-28T07:22:17;-2.70;99.90
26691;DHT22;14307;51.718;8.938;2023-02-28T07:24:43;-2.80;99.90
26691;DHT22;14307;51.718;8.938;2023-02-28T07:27:10;-2.80;99.90
26691;DHT22;14307;51.718;8.938;2023-02-28T07:29:37;-2.60;99.90
26691;DHT22;14307;51.718;8.938;2023-02-28T07:32:04;-2.40;99.90
26691;DHT22;14307;51.718;8.938;2023-02-28T07:34:31;-2.30;99.90
26691;DHT22;14307;51.718;8.938;2023-02-28T07:36:58;-2.20;99.90
26691;DHT22;14307;51.718;8.938;2023-02-28T07:39:24;-2.50;99.90
26691;DHT22;14307;51.718;8.938;2023-02-28T07:41:51;-2.60;99.90
26691;DHT22;14307;51.718;8.938;2023-02-28T07:44:18;-2.50;99.90
26691;DHT22;14307;51.718;8.938;2023-02-28T07:46:44;-2.30;99.90
26691;DHT22;14307;51.718;8.938;2023-02-28T07:49:11;-2.10;99.90
26691;DHT22;14307;51.718;8.938;2023-02-28T07:51:38;-1.90;99.90
26691;DHT22;14307;51.718;8.938;2023-02-28T07:54:04;-1.60;99.90
26691;DHT22;14307;51.718;8.938;2023-02-28T07:56:31;-1.50;99.90
26691;DHT22;14307;51.718;8.938;2023-02-28T07:58:58;-1.40;99.90
26691;DHT22;14307;51.718;8.938;2023-02-28T08:01:25;-1.20;99.90
26691;DHT22;14307;51.718;8.938;2023-02-28T08:03:52;-1.20;99.90
26691;DHT22;14307;51.718;8.938;2023-02-28T08:06:21;-1.00;99.90
26691;DHT22;14307;51.718;8.938;2023-02-28T08:08:49;-0.90;99.90
26691;DHT22;14307;51.718;8.938;2023-02-28T08:11:16;-0.70;99.90
26691;DHT22;14307;51.718;8.938;2023-02-28T08:13:44;-0.40;99.90
26691;DHT22;14307;51.718;8.938;2023-02-28T08:16:12;-0.40;99.90
26691;DHT22;14307;51.718;8.938;2023-02-28T08:18:43;-0.20;99.90
26691;DHT22;14307;51.718;8.938;2023-02-28T08:21:10;-0.10;99.90
26691;DHT22;14307;51.718;8.938;2023-02-28T08:23:37;0.00;99.90
26691;DHT22;14307;51.718;8.938;2023-02-28T08:26:04;0.10;99.90
26691;DHT22;14307;51.718;8.938;2023-02-28T08:28:31;0.10;99.90
26691;DHT22;14307;51.718;8.938;2023-02-28T08:30:58;0.10;99.90
26691;DHT22;14307;51.718;8.938;2023-02-28T08:33:27;0.10;99.90
26691;DHT22;14307;51.718;8.938;2023-02-28T08:35:55;0.10;99.90
26691;DHT22;14307;51.718;8.938;2023-02-28T08:38:23;0.30;99.90
26691;DHT22;14307;51.718;8.938;2023-02-28T08:40:50;0.40;99.90
26691;DHT22;14307;51.718;8.938;2023-02-28T08:43:22;0.40;99.90
26691;DHT22;14307;51.718;8.938;2023-02-28T08:45:52;0.50;99.90
26691;DHT22;14307;51.718;8.938;2023-02-28T08:48:18;0.70;99.90
26691;DHT22;14307;51.718;8.938;2023-02-28T08:50:58;0.80;99.90
26691;DHT22;14307;51.718;8.938;2023-02-28T08:53:33;0.90;99.90
26691;DHT22;14307;51.718;8.938;2023-02-28T08:56:03;0.90;99.90
26691;DHT22;14307;51.718;8.938;2023-02-28T08:58:30;1.10;99.90
26691;DHT22;14307;51.718;8.938;2023-02-28T09:00:57;1.00;99.90
26691;DHT22;14307;51.718;8.938;2023-02-28T09:03:24;1.10;99.90
26691;DHT22;14307;51.718;8.938;2023-02-28T09:06:00;1.10;99.90
26691;DHT22;14307;51.718;8.938;2023-02-28T09:08:29;1.10;99.90
26691;DHT22;14307;51.718;8.938;2023-02-28T09:10:57;1.20;99.90
26691;DHT22;14307;51.718;8.938;2023-02-28T09:13:26;1.40;99.90
26691;DHT22;14307;51.718;8.938;2023-02-28T09:15:53;2.00;99.90
26691;DHT22;14307;51.718;8.938;2023-02-28T09:18:20;2.40;99.90
26691;DHT22;14307;51.718;8.938;2023-02-28T09:20:47;2.10;99.90
26691;DHT22;14307;51.718;8.938;2023-02-28T09:23:14;2.10;99.90
26691;DHT22;14307;51.718;8.938;2023-02-28T09:25:52;2.70;99.90
26691;DHT22;14307;51.718;8.938;2023-02-28T09:28:20;2.90;99.90
26691;DHT22;14307;51.718;8.938;2023-02-28T09:30:52;2.30;99.90
26691;DHT22;14307;51.718;8.938;2023-02-28T09:33:21;1.90;99.90
26691;DHT22;14307;51.718;8.938;2023-02-28T09:35:48;1.80;99.90
26691;DHT22;14307;51.718;8.938;2023-02-28T09:38:16;1.70;99.90
26691;DHT22;14307;51.718;8.938;2023-02-28T09:40:58;1.80;99.90
26691;DHT22;14307;51.718;8.938;2023-02-28T09:43:35;1.80;99.90
26691;DHT22;14307;51.718;8.938;2023-02-28T09:46:31;1.60;99.90
26691;DHT22;14307;51.718;8.938;2023-02-28T09:49:00;2.20;99.90
26691;DHT22;14307;51.718;8.938;2023-02-28T09:51:55;2.20;99.90
26691;DHT22;14307;51.718;8.938;2023-02-28T09:54:24;2.30;99.90
26691;DHT22;14307;51.718;8.938;2023-02-28T09:56:58;2.50;99.90
26691;DHT22;14307;51.718;8.938;2023-02-28T10:03:04;2.20;99.90
26691;DHT22;14307;51.718;8.938;2023-02-28T10:05:43;2.30;99.90
26691;DHT22;14307;51.718;8.938;2023-02-28T10:08:18;2.30;99.90
26691;DHT22;14307;51.718;8.938;2023-02-28T10:10:50;2.10;99.90
26691;DHT22;14307;51.718;8.938;2023-02-28T10:19:55;2.30;99.90
26691;DHT22;14307;51.718;8.938;2023-02-28T10:22:34;2.40;99.90
26691;DHT22;14307;51.718;8.938;2023-02-28T10:25:15;2.40;99.90
26691;DHT22;14307;51.718;8.938;2023-02-28T10:27:42;2.60;99.90
26691;DHT22;14307;51.718;8.938;2023-02-28T10:30:11;2.60;99.90
26691;DHT22;14307;51.718;8.938;2023-02-28T10:32:44;2.70;99.90
26691;DHT22;14307;51.718;8.938;2023-02-28T10:35:17;2.80;99.90
26691;DHT22;14307;51.718;8.938;2023-02-28T10:37:48;3.00;99.90
26691;DHT22;14307;51.718;8.938;2023-02-28T10:45:52;2.80;99.90
26691;DHT22;14307;51.718;8.938;2023-02-28T10:59:00;2.70;99.90
26691;DHT22;14307;51.718;8.938;2023-02-28T11:01:40;2.60;99.90
26691;DHT22;14307;51.718;8.938;2023-02-28T11:07:00;2.50;99.90
26691;DHT22;14307;51.718;8.938;2023-02-28T11:09:32;2.60;99.90
26691;DHT22;14307;51.718;8.938;2023-02-28T11:12:04;2.60;99.90
26691;DHT22;14307;51.718;8.938;2023-02-28T11:14:34;2.40;99.90
26691;DHT22;14307;51.718;8.938;2023-02-28T11:17:21;2.30;99.90
26691;DHT22;14307;51.718;8.938;2023-02-28T11:19:51;2.40;99.90
26691;DHT22;14307;51.718;8.938;2023-02-28T11:22:21;2.40;99.90
26691;DHT22;14307;51.718;8.938;2023-02-28T11:24:53;2.60;99.90
26691;DHT22;14307;51.718;8.938;2023-02-28T11:29:52;2.70;99.90
26691;DHT22;14307;51.718;8.938;2023-02-28T11:32:23;2.70;99.90
26691;DHT22;14307;51.718;8.938;2023-02-28T11:35:10;2.80;99.90
26691;DHT22;14307;51.718;8.938;2023-02-28T11:37:41;2.90;99.90
26691;DHT22;14307;51.718;8.938;2023-02-28T11:40:16;3.10;99.90
26691;DHT22;14307;51.718;8.938;2023-02-28T11:48:23;3.10;99.90
26691;DHT22;14307;51.718;8.938;2023-02-28T11:50:58;3.10;99.90
26691;DHT22;14307;51.718;8.938;2023-02-28T11:54:01;3.00;99.90
26691;DHT22;14307;51.718;8.938;2023-02-28T11:56:41;2.60;99.90
26691;DHT22;14307;51.718;8.938;2023-02-28T11:59:43;2.70;99.90
26691;DHT22;14307;51.718;8.938;2023-02-28T12:05:39;3.10;99.90
26691;DHT22;14307;51.718;8.938;2023-02-28T12:14:22;2.80;99.90
26691;DHT22;14307;51.718;8.938;2023-02-28T12:16:59;2.60;99.90
26691;DHT22;14307;51.718;8.938;2023-02-28T12:20:09;2.80;99.90
26691;DHT22;14307;51.718;8.938;2023-02-28T12:25:18;2.80;99.90
26691;DHT22;14307;51.718;8.938;2023-02-28T12:27:48;2.90;99.90
26691;DHT22;14307;51.718;8.938;2023-02-28T12:30:21;3.20;99.90
26691;DHT22;14307;51.718;8.938;2023-02-28T12:32:52;3.30;99.90
26691;DHT22;14307;51.718;8.938;2023-02-28T12:35:26;3.10;99.90
26691;DHT22;14307;51.718;8.938;2023-02-28T12:38:17;3.30;99.90
26691;DHT22;14307;51.718;8.938;2023-02-28T12:41:00;3.10;99.90
26691;DHT22;14307;51.718;8.938;2023-02-28T12:43:44;3.20;99.90
26691;DHT22;14307;51.718;8.938;2023-02-28T12:46:19;3.10;99.90
26691;DHT22;14307;51.718;8.938;2023-02-28T12:48:52;3.30;99.90
26691;DHT22;14307;51.718;8.938;2023-02-28T12:51:20;3.80;99.90
26691;DHT22;14307;51.718;8.938;2023-02-28T13:09:54;4.20;99.90
26691;DHT22;14307;51.718;8.938;2023-02-28T13:12:22;4.40;99.90
26691;DHT22;14307;51.718;8.938;2023-02-28T13:14:50;4.70;99.90
26691;DHT22;14307;51.718;8.938;2023-02-28T13:17:26;4.50;99.90
26691;DHT22;14307;51.718;8.938;2023-02-28T13:22:39;4.20;99.90
26691;DHT22;14307;51.718;8.938;2023-02-28T13:27:55;4.80;99.90
26691;DHT22;14307;51.718;8.938;2023-02-28T13:33:24;4.80;99.90
26691;DHT22;14307;51.718;8.938;2023-02-28T13:38:42;4.70;99.90
26691;DHT22;14307;51.718;8.938;2023-02-28T13:49:28;4.40;99.90
26691;DHT22;14307;51.718;8.938;2023-02-28T13:54:48;4.20;99.90
26691;DHT22;14307;51.718;8.938;2023-02-28T14:00:23;4.00;99.90
26691;DHT22;14307;51.718;8.938;2023-02-28T14:03:07;4.20;99.90
26691;DHT22;14307;51.718;8.938;2023-02-28T14:05:38;4.60;99.90
26691;DHT22;14307;51.718;8.938;2023-02-28T14:08:21;4.50;99.90
26691;DHT22;14307;51.718;8.938;2023-02-28T14:10:52;4.40;99.90
26691;DHT22;14307;51.718;8.938;2023-02-28T14:13:43;4.20;99.90
26691;DHT22;14307;51.718;8.938;2023-02-28T14:16:23;4.30;99.90
26691;DHT22;14307;51.718;8.938;2023-02-28T14:18:58;4.70;99.90
26691;DHT22;14307;51.718;8.938;2023-02-28T14:21:29;4.80;99.90
26691;DHT22;14307;51.718;8.938;2023-02-28T14:24:15;4.70;99.90
26691;DHT22;14307;51.718;8.938;2023-02-28T14:27:00;4.60;99.90
26691;DHT22;14307;51.718;8.938;2023-02-28T14:34:57;4.50;99.90
26691;DHT22;14307;51.718;8.938;2023-02-28T14:37:32;4.30;99.90
26691;DHT22;14307;51.718;8.938;2023-02-28T14:40:00;4.50;99.90
26691;DHT22;14307;51.718;8.938;2023-02-28T14:42:37;4.50;99.90
26691;DHT22;14307;51.718;8.938;2023-02-28T14:45:19;4.60;99.90
26691;DHT22;14307;51.718;8.938;2023-02-28T14:47:47;4.40;99.90
26691;DHT22;14307;51.718;8.938;2023-02-28T14:50:32;4.10;99.90
26691;DHT22;14307;51.718;8.938;2023-02-28T14:53:00;4.00;99.90
26691;DHT22;14307;51.718;8.938;2023-02-28T14:55:36;4.10;99.90
26691;DHT22;14307;51.718;8.938;2023-02-28T14:58:05;3.90;99.90
26691;DHT22;14307;51.718;8.938;2023-02-28T15:00:37;4.00;99.90
26691;DHT22;14307;51.718;8.938;2023-02-28T15:05:56;4.20;99.90
26691;DHT22;14307;51.718;8.938;2023-02-28T15:08:24;4.10;99.90
26691;DHT22;14307;51.718;8.938;2023-02-28T15:13:36;3.90;99.90
26691;DHT22;14307;51.718;8.938;2023-02-28T15:16:17;3.90;99.90
26691;DHT22;14307;51.718;8.938;2023-02-28T15:18:54;4.00;99.90
26691;DHT22;14307;51.718;8.938;2023-02-28T15:21:28;4.10;99.90
26691;DHT22;14307;51.718;8.938;2023-02-28T15:26:41;4.00;99.90
26691;DHT22;14307;51.718;8.938;2023-02-28T15:29:17;3.90;99.90
26691;DHT22;14307;51.718;8.938;2023-02-28T15:31:48;3.90;99.90
26691;DHT22;14307;51.718;8.938;2023-02-28T15:34:42;3.90;99.90
26691;DHT22;14307;51.718;8.938;2023-02-28T15:40:04;3.90;99.90
26691;DHT22;14307;51.718;8.938;2023-02-28T15:42:31;3.80;99.90
26691;DHT22;14307;51.718;8.938;2023-02-28T15:44:58;3.80;99.90
26691;DHT22;14307;51.718;8.938;2023-02-28T15:47:27;3.80;99.90
26691;DHT22;14307;51.718;8.938;2023-02-28T15:49:56;3.90;99.90
26691;DHT22;14307;51.718;8.938;2023-02-28T15:52:40;3.80;99.90
26691;DHT22;14307;51.718;8.938;2023-02-28T15:55:26;3.80;99.90
26691;DHT22;14307;51.718;8.938;2023-02-28T15:57:56;3.80;99.90
26691;DHT22;14307;51.718;8.938;2023-02-28T16:00:26;3.80;99.90
26691;DHT22;14307;51.718;8.938;2023-02-28T16:02:53;3.80;99.90
26691;DHT22;14307;51.718;8.938;2023-02-28T16:05:30;3.60;99.90
26691;DHT22;14307;51.718;8.938;2023-02-28T16:08:13;3.60;99.90
26691;DHT22;14307;51.718;8.938;2023-02-28T16:10:40;3.60;99.90
26691;DHT22;14307;51.718;8.938;2023-02-28T16:13:08;3.50;99.90
26691;DHT22;14307;51.718;8.938;2023-02-28T16:15:42;3.50;99.90
26691;DHT22;14307;51.718;8.938;2023-02-28T16:18:11;3.50;99.90
26691;DHT22;14307;51.718;8.938;2023-02-28T16:20:38;3.40;99.90
26691;DHT22;14307;51.718;8.938;2023-02-28T16:23:05;3.40;99.90
26691;DHT22;14307;51.718;8.938;2023-02-28T16:25:40;3.40;99.90
26691;DHT22;14307;51.718;8.938;2023-02-28T16:28:15;3.30;99.90
26691;DHT22;14307;51.718;8.938;2023-02-28T16:30:44;3.30;99.90
26691;DHT22;14307;51.718;8.938;2023-02-28T16:33:11;3.20;99.90
26691;DHT22;14307;51.718;8.938;2023-02-28T16:35:37;3.20;99.90
26691;DHT22;14307;51.718;8.938;2023-02-28T16:38:04;3.10;99.90
26691;DHT22;14307;51.718;8.938;2023-02-28T16:40:34;3.00;99.90
26691;DHT22;14307;51.718;8.938;2023-02-28T16:43:05;3.00;99.90
26691;DHT22;14307;51.718;8.938;2023-02-28T16:45:33;3.00;99.90
26691;DHT22;14307;51.718;8.938;2023-02-28T16:48:00;3.00;99.90
26691;DHT22;14307;51.718;8.938;2023-02-28T16:50:29;2.90;99.90
26691;DHT22;14307;51.718;8.938;2023-02-28T16:52:56;2.80;99.90
26691;DHT22;14307;51.718;8.938;2023-02-28T16:55:23;2.70;99.90
26691;DHT22;14307;51.718;8.938;2023-02-28T16:57:56;2.60;99.90
26691;DHT22;14307;51.718;8.938;2023-02-28T17:00:25;2.50;99.90
26691;DHT22;14307;51.718;8.938;2023-02-28T17:02:54;2.40;99.90
26691;DHT22;14307;51.718;8.938;2023-02-28T17:05:21;2.40;99.90
26691;DHT22;14307;51.718;8.938;2023-02-28T17:07:48;2.40;99.90
26691;DHT22;14307;51.718;8.938;2023-02-28T17:10:18;2.30;99.90
26691;DHT22;14307;51.718;8.938;2023-02-28T17:12:45;2.20;99.90
26691;DHT22;14307;51.718;8.938;2023-02-28T17:15:13;2.10;99.90
26691;DHT22;14307;51.718;8.938;2023-02-28T17:17:41;2.10;99.90
26691;DHT22;14307;51.718;8.938;2023-02-28T17:20:12;2.00;99.90
26691;DHT22;14307;51.718;8.938;2023-02-28T17:22:40;1.90;99.90
26691;DHT22;14307;51.718;8.938;2023-02-28T17:25:08;1.80;99.90
26691;DHT22;14307;51.718;8.938;2023-02-28T17:27:36;1.70;99.90
26691;DHT22;14307;51.718;8.938;2023-02-28T17:30:20;1.70;99.90
26691;DHT22;14307;51.718;8.938;2023-02-28T17:32:47;1.70;99.90
26691;DHT22;14307;51.718;8.938;2023-02-28T17:35:14;1.60;99.90
26691;DHT22;14307;51.718;8.938;2023-02-28T17:37:41;1.50;99.90
26691;DHT22;14307;51.718;8.938;2023-02-28T17:40:20;1.40;99.90
26691;DHT22;14307;51.718;8.938;2023-02-28T17:42:47;1.30;99.90
26691;DHT22;14307;51.718;8.938;2023-02-28T17:45:15;1.20;99.90
26691;DHT22;14307;51.718;8.938;2023-02-28T17:47:43;1.00;99.90
26691;DHT22;14307;51.718;8.938;2023-02-28T17:50:15;1.00;99.90
26691;DHT22;14307;51.718;8.938;2023-02-28T17:52:43;1.00;99.90
26691;DHT22;14307;51.718;8.938;2023-02-28T17:55:10;0.90;99.90
26691;DHT22;14307;51.718;8.938;2023-02-28T17:57:37;0.80;99.90
26691;DHT22;14307;51.718;8.938;2023-02-28T18:00:05;0.90;99.90
26691;DHT22;14307;51.718;8.938;2023-02-28T18:02:37;0.80;99.90
26691;DHT22;14307;51.718;8.938;2023-02-28T18:05:04;0.70;99.90
26691;DHT22;14307;51.718;8.938;2023-02-28T18:07:30;0.60;99.90
26691;DHT22;14307;51.718;8.938;2023-02-28T18:09:57;0.70;99.90
26691;DHT22;14307;51.718;8.938;2023-02-28T18:12:24;0.70;99.90
26691;DHT22;14307;51.718;8.938;2023-02-28T18:14:51;0.60;99.90
26691;DHT22;14307;51.718;8.938;2023-02-28T18:17:18;0.60;99.90
26691;DHT22;14307;51.718;8.938;2023-02-28T18:19:45;0.60;99.90